sensor_id;sensor_type;location;lat;lon;timestamp;pressure;altitude;pressure_sealevel;temperature;humidity
42125;BME280;27787;44.594;11.046;2024-03-02T00:01:33;100108.88;;;11.86;100.00
42125;BME280;27787;44.594;11.046;2024-03-02T00:04:17;100111.50;;;11.87;100.00
42125;BME280;27787;44.594;11.046;2024-03-02T00:07:02;100111.53;;;11.81;100.00
42125;BME280;27787;44.594;11.046;2024-03-02T00:09:47;100119.50;;;11.75;100.00
42125;BME280;27787;44.594;11.046;2024-03-02T00:12:30;100117.75;;;11.74;100.00
42125;BME280;27787;44.594;11.046;2024-03-02T00:18:12;100122.13;;;11.79;100.00
42125;BME280;27787;44.594;11.046;2024-03-02T00:20:57;100128.34;;;11.74;100.00
42125;BME280;27787;44.594;11.046;2024-03-02T00:23:41;100122.16;;;11.70;100.00
42125;BME280;27787;44.594;11.046;2024-03-02T00:26:26;100122.22;;;11.64;100.00
42125;BME280;27787;44.594;11.046;2024-03-02T00:29:15;100124.03;;;11.61;100.00
42125;BME280;27787;44.594;11.046;2024-03-02T00:32:00;100131.94;;;11.61;100.00
42125;BME280;27787;44.594;11.046;2024-03-02T00:34:45;100118.69;;;11.64;100.00
42125;BME280;27787;44.594;11.046;2024-03-02T00:37:29;100119.56;;;11.66;100.00
42125;BME280;27787;44.594;11.046;2024-03-02T00:40:13;100119.53;;;11.72;100.00
42125;BME280;27787;44.594;11.046;2024-03-02T00:42:58;100125.66;;;11.75;100.00
42125;BME280;27787;44.594;11.046;2024-03-02T00:45:43;100127.41;;;11.78;100.00
42125;BME280;27787;44.594;11.046;2024-03-02T00:48:27;100120.38;;;11.80;100.00
42125;BME280;27787;44.594;11.046;2024-03-02T00:51:11;100129.19;;;11.79;100.00
42125;BME280;27787;44.594;11.046;2024-03-02T00:53:58;100123.88;;;11.80;100.00
42125;BME280;27787;44.594;11.046;2024-03-02T00:56:43;100130.03;;;11.86;100.00
42125;BME280;27787;44.594;11.046;2024-03-02T00:59:27;100137.97;;;11.86;100.00
42125;BME280;27787;44.594;11.046;2024-03-02T01:02:11;100127.38;;;11.87;100.00
42125;BME280;27787;44.594;11.046;2024-03-02T01:04:55;100132.69;;;11.81;100.00
42125;BME280;27787;44.594;11.046;2024-03-02T01:07:39;100131.84;;;11.79;100.00
42125;BME280;27787;44.594;11.046;2024-03-02T01:10:24;100130.09;;;11.75;100.00
42125;BME280;27787;44.594;11.046;2024-03-02T01:13:10;100130.09;;;11.69;100.00
42125;BME280;27787;44.594;11.046;2024-03-02T01:15:54;100124.84;;;11.66;100.00
42125;BME280;27787;44.594;11.046;2024-03-02T01:18:39;100126.59;;;11.67;100.00
42125;BME280;27787;44.594;11.046;2024-03-02T01:21:23;100127.47;;;11.67;100.00
42125;BME280;27787;44.594;11.046;2024-03-02T01:24:07;100126.56;;;11.70;100.00
42125;BME280;27787;44.594;11.046;2024-03-02T01:26:52;100124.81;;;11.72;100.00
42125;BME280;27787;44.594;11.046;2024-03-02T01:29:36;100134.47;;;11.77;100.00
42125;BME280;27787;44.594;11.046;2024-03-02T01:32:20;100131.84;;;11.79;100.00
42125;BME280;27787;44.594;11.046;2024-03-02T01:35:05;100129.19;;;11.77;100.00
42125;BME280;27787;44.594;11.046;2024-03-02T01:37:50;100129.19;;;11.79;100.00
42125;BME280;27787;44.594;11.046;2024-03-02T01:40:36;100131.81;;;11.77;100.00
42125;BME280;27787;44.594;11.046;2024-03-02T01:43:20;100134.47;;;11.76;100.00
42125;BME280;27787;44.594;11.046;2024-03-02T01:46:05;100136.28;;;11.72;100.00
42125;BME280;27787;44.594;11.046;2024-03-02T01:48:49;100131.91;;;11.67;100.00
42125;BME280;27787;44.594;11.046;2024-03-02T01:51:33;100134.56;;;11.65;100.00
42125;BME280;27787;44.594;11.046;2024-03-02T01:54:18;100134.59;;;11.62;100.00
42125;BME280;27787;44.594;11.046;2024-03-02T01:57:02;100141.63;;;11.63;100.00
42125;BME280;27787;44.594;11.046;2024-03-02T01:59:46;100146.00;;;11.66;100.00
42125;BME280;27787;44.594;11.046;2024-03-02T02:02:35;100142.44;;;11.73;100.00
42125;BME280;27787;44.594;11.046;2024-03-02T02:05:19;100140.69;;;11.69;100.00
42125;BME280;27787;44.594;11.046;2024-03-02T02:08:04;100138.06;;;11.67;100.00
42125;BME280;27787;44.594;11.046;2024-03-02T02:10:48;100143.38;;;11.64;100.00
42125;BME280;27787;44.594;11.046;2024-03-02T02:13:32;100139.00;;;11.62;100.00
42125;BME280;27787;44.594;11.046;2024-03-02T02:16:16;100141.66;;;11.60;100.00
42125;BME280;27787;44.594;11.046;2024-03-02T02:19:00;100132.84;;;11.57;100.00
42125;BME280;27787;44.594;11.046;2024-03-02T02:21:44;100134.63;;;11.55;100.00
42125;BME280;27787;44.594;11.046;2024-03-02T02:24:29;100130.22;;;11.53;100.00
42125;BME280;27787;44.594;11.046;2024-03-02T02:27:13;100124.06;;;11.53;100.00
42125;BME280;27787;44.594;11.046;2024-03-02T02:29:59;100124.94;;;11.53;100.00
42125;BME280;27787;44.594;11.046;2024-03-02T02:32:45;100131.06;;;11.59;100.00
42125;BME280;27787;44.594;11.046;2024-03-02T02:35:29;100126.66;;;11.61;100.00
42125;BME280;27787;44.594;11.046;2024-03-02T02:38:14;100118.69;;;11.67;100.00
42125;BME280;27787;44.594;11.046;2024-03-02T02:40:58;100117.78;;;11.69;100.00
42125;BME280;27787;44.594;11.046;2024-03-02T02:43:42;100111.59;;;11.69;100.00
42125;BME280;27787;44.594;11.046;2024-03-02T02:46:25;100122.19;;;11.67;100.00
42125;BME280;27787;44.594;11.046;2024-03-02T02:49:10;100122.19;;;11.69;100.00
42125;BME280;27787;44.594;11.046;2024-03-02T02:51:54;100119.56;;;11.67;100.00
42125;BME280;27787;44.594;11.046;2024-03-02T02:54:38;100125.69;;;11.69;100.00
42125;BME280;27787;44.594;11.046;2024-03-02T02:57:22;100129.22;;;11.70;100.00
42125;BME280;27787;44.594;11.046;2024-03-02T03:02:54;100115.09;;;11.71;100.00
42125;BME280;27787;44.594;11.046;2024-03-02T03:05:38;100120.41;;;11.74;100.00
42125;BME280;27787;44.594;11.046;2024-03-02T03:08:22;100124.78;;;11.75;100.00
42125;BME280;27787;44.594;11.046;2024-03-02T03:11:07;100124.81;;;11.73;100.00
42125;BME280;27787;44.594;11.046;2024-03-02T03:13:53;100118.63;;;11.74;100.00
42125;BME280;27787;44.594;11.046;2024-03-02T03:16:38;100126.53;;;11.77;100.00
42125;BME280;27787;44.594;11.046;2024-03-02T03:19:22;100121.25;;;11.76;100.00
42125;BME280;27787;44.594;11.046;2024-03-02T03:22:06;100122.13;;;11.76;100.00
42125;BME280;27787;44.594;11.046;2024-03-02T03:24:51;100130.06;;;11.79;100.00
42125;BME280;27787;44.594;11.046;2024-03-02T03:27:35;100127.44;;;11.79;100.00
42125;BME280;27787;44.594;11.046;2024-03-02T03:30:20;100127.41;;;11.78;100.00
42125;BME280;27787;44.594;11.046;2024-03-02T03:33:04;100133.59;;;11.77;100.00
42125;BME280;27787;44.594;11.046;2024-03-02T03:35:51;100133.59;;;11.80;100.00
42125;BME280;27787;44.594;11.046;2024-03-02T03:38:36;100129.16;;;11.82;100.00
42125;BME280;27787;44.594;11.046;2024-03-02T03:41:20;100136.19;;;11.85;100.00
42125;BME280;27787;44.594;11.046;2024-03-02T03:44:04;100136.22;;;11.86;100.00
42125;BME280;27787;44.594;11.046;2024-03-02T03:46:48;100137.94;;;11.89;100.00
42125;BME280;27787;44.594;11.046;2024-03-02T03:49:32;100139.72;;;11.88;100.00
42125;BME280;27787;44.594;11.046;2024-03-02T03:52:16;100139.72;;;11.88;100.00
42125;BME280;27787;44.594;11.046;2024-03-02T03:55:01;100139.72;;;11.87;100.00
42125;BME280;27787;44.594;11.046;2024-03-02T03:57:45;100140.59;;;11.84;100.00
42125;BME280;27787;44.594;11.046;2024-03-02T04:00:29;100143.25;;;11.84;100.00
42125;BME280;27787;44.594;11.046;2024-03-02T04:03:13;100137.97;;;11.82;100.00
42125;BME280;27787;44.594;11.046;2024-03-02T04:05:57;100135.34;;;11.78;100.00
42125;BME280;27787;44.594;11.046;2024-03-02T04:08:41;100143.31;;;11.73;100.00
42125;BME280;27787;44.594;11.046;2024-03-02T04:11:25;100147.72;;;11.71;100.00
42125;BME280;27787;44.594;11.046;2024-03-02T04:14:10;100145.06;;;11.71;100.00
42125;BME280;27787;44.594;11.046;2024-03-02T04:16:54;100150.34;;;11.71;100.00
42125;BME280;27787;44.594;11.046;2024-03-02T04:19:39;100151.25;;;11.70;100.00
42125;BME280;27787;44.594;11.046;2024-03-02T04:22:24;100147.72;;;11.70;100.00
42125;BME280;27787;44.594;11.046;2024-03-02T04:25:08;100157.47;;;11.66;100.00
42125;BME280;27787;44.594;11.046;2024-03-02T04:27:53;100150.41;;;11.67;100.00
42125;BME280;27787;44.594;11.046;2024-03-02T04:30:37;100165.34;;;11.71;100.00
42125;BME280;27787;44.594;11.046;2024-03-02T04:33:21;100156.53;;;11.73;100.00
42125;BME280;27787;44.594;11.046;2024-03-02T04:36:06;100153.03;;;11.73;100.00
42125;BME280;27787;44.594;11.046;2024-03-02T04:38:53;100163.59;;;11.70;100.00
42125;BME280;27787;44.594;11.046;2024-03-02T04:41:37;100163.59;;;11.70;100.00
42125;BME280;27787;44.594;11.046;2024-03-02T04:44:21;100167.16;;;11.66;100.00
42125;BME280;27787;44.594;11.046;2024-03-02T04:47:05;100168.94;;;11.64;100.00
42125;BME280;27787;44.594;11.046;2024-03-02T04:49:49;100174.22;;;11.64;100.00
42125;BME280;27787;44.594;11.046;2024-03-02T04:52:34;100177.75;;;11.63;100.00
42125;BME280;27787;44.594;11.046;2024-03-02T04:55:18;100176.88;;;11.61;100.00
42125;BME280;27787;44.594;11.046;2024-03-02T04:58:02;100175.13;;;11.61;100.00
42125;BME280;27787;44.594;11.046;2024-03-02T05:00:46;100187.44;;;11.65;100.00
42125;BME280;27787;44.594;11.046;2024-03-02T05:03:30;100183.91;;;11.63;100.00
42125;BME280;27787;44.594;11.046;2024-03-02T05:06:14;100186.59;;;11.60;100.00
42125;BME280;27787;44.594;11.046;2024-03-02T05:08:59;100180.41;;;11.61;100.00
42125;BME280;27787;44.594;11.046;2024-03-02T05:11:43;100182.19;;;11.59;100.00
42125;BME280;27787;44.594;11.046;2024-03-02T05:14:43;100197.16;;;11.59;100.00
42125;BME280;27787;44.594;11.046;2024-03-02T05:17:27;100197.16;;;11.57;100.00
42125;BME280;27787;44.594;11.046;2024-03-02T05:20:12;100202.44;;;11.57;100.00
42125;BME280;27787;44.594;11.046;2024-03-02T05:22:56;100199.81;;;11.56;100.00
42125;BME280;27787;44.594;11.046;2024-03-02T05:25:40;100202.47;;;11.56;100.00
42125;BME280;27787;44.594;11.046;2024-03-02T05:28:24;100207.75;;;11.56;100.00
42125;BME280;27787;44.594;11.046;2024-03-02T05:31:11;100209.50;;;11.55;100.00
42125;BME280;27787;44.594;11.046;2024-03-02T05:33:55;100212.16;;;11.53;100.00
42125;BME280;27787;44.594;11.046;2024-03-02T05:36:40;100212.19;;;11.52;100.00
42125;BME280;27787;44.594;11.046;2024-03-02T05:39:24;100207.75;;;11.56;100.00
42125;BME280;27787;44.594;11.046;2024-03-02T05:42:08;100216.53;;;11.58;100.00
42125;BME280;27787;44.594;11.046;2024-03-02T05:44:53;100213.91;;;11.61;100.00
42125;BME280;27787;44.594;11.046;2024-03-02T05:47:37;100217.41;;;11.58;100.00
42125;BME280;27787;44.594;11.046;2024-03-02T05:50:22;100220.09;;;11.55;100.00
42125;BME280;27787;44.594;11.046;2024-03-02T05:53:06;100216.59;;;11.51;100.00
42125;BME280;27787;44.594;11.046;2024-03-02T05:55:50;100219.22;;;11.51;100.00
42125;BME280;27787;44.594;11.046;2024-03-02T05:58:38;100219.22;;;11.51;100.00
42125;BME280;27787;44.594;11.046;2024-03-02T06:01:42;100228.88;;;11.56;100.00
42125;BME280;27787;44.594;11.046;2024-03-02T06:04:27;100225.34;;;11.57;100.00
42125;BME280;27787;44.594;11.046;2024-03-02T06:07:11;100232.41;;;11.58;100.00
42125;BME280;27787;44.594;11.046;2024-03-02T06:09:55;100233.28;;;11.57;100.00
42125;BME280;27787;44.594;11.046;2024-03-02T06:12:39;100235.94;;;11.57;100.00
42125;BME280;27787;44.594;11.046;2024-03-02T06:15:23;100246.50;;;11.57;100.00
42125;BME280;27787;44.594;11.046;2024-03-02T06:18:07;100243.00;;;11.55;100.00
42125;BME280;27787;44.594;11.046;2024-03-02T06:20:51;100243.88;;;11.55;100.00
42125;BME280;27787;44.594;11.046;2024-03-02T06:23:35;100248.28;;;11.56;100.00
42125;BME280;27787;44.594;11.046;2024-03-02T06:26:20;100243.88;;;11.55;100.00
42125;BME280;27787;44.594;11.046;2024-03-02T06:29:04;100241.25;;;11.52;100.00
42125;BME280;27787;44.594;11.046;2024-03-02T06:31:48;100249.19;;;11.50;100.00
42125;BME280;27787;44.594;11.046;2024-03-02T06:34:32;100250.94;;;11.53;100.00
42125;BME280;27787;44.594;11.046;2024-03-02T06:37:16;100253.59;;;11.51;100.00
42125;BME280;27787;44.594;11.046;2024-03-02T06:40:00;100258.88;;;11.51;100.00
42125;BME280;27787;44.594;11.046;2024-03-02T06:42:44;100259.75;;;11.53;100.00
42125;BME280;27787;44.594;11.046;2024-03-02T06:45:29;100267.69;;;11.53;100.00
42125;BME280;27787;44.594;11.046;2024-03-02T06:48:14;100266.78;;;11.53;100.00
42125;BME280;27787;44.594;11.046;2024-03-02T06:51:02;100269.44;;;11.55;100.00
42125;BME280;27787;44.594;11.046;2024-03-02T06:53:46;100272.94;;;11.57;100.00
42125;BME280;27787;44.594;11.046;2024-03-02T06:56:34;100282.63;;;11.58;100.00
42125;BME280;27787;44.594;11.046;2024-03-02T06:59:18;100281.72;;;11.59;100.00
42125;BME280;27787;44.594;11.046;2024-03-02T07:02:02;100287.91;;;11.58;100.00
42125;BME280;27787;44.594;11.046;2024-03-02T07:04:47;100291.44;;;11.61;100.00
42125;BME280;27787;44.594;11.046;2024-03-02T07:07:31;100288.81;;;11.61;100.00
42125;BME280;27787;44.594;11.046;2024-03-02T07:10:15;100297.59;;;11.62;100.00
42125;BME280;27787;44.594;11.046;2024-03-02T07:13:00;100294.97;;;11.63;100.00
42125;BME280;27787;44.594;11.046;2024-03-02T07:15:44;100294.97;;;11.62;100.00
42125;BME280;27787;44.594;11.046;2024-03-02T07:19:03;100302.91;;;11.62;100.00
42125;BME280;27787;44.594;11.046;2024-03-02T07:21:47;100304.63;;;11.64;100.00
42125;BME280;27787;44.594;11.046;2024-03-02T07:24:42;100308.16;;;11.66;100.00
42125;BME280;27787;44.594;11.046;2024-03-02T07:27:26;100311.66;;;11.68;100.00
42125;BME280;27787;44.594;11.046;2024-03-02T07:30:14;100317.84;;;11.73;100.00
42125;BME280;27787;44.594;11.046;2024-03-02T07:32:59;100316.94;;;11.79;100.00
42125;BME280;27787;44.594;11.046;2024-03-02T07:35:43;100318.66;;;11.83;100.00
42125;BME280;27787;44.594;11.046;2024-03-02T07:38:28;100322.22;;;11.85;100.00
42125;BME280;27787;44.594;11.046;2024-03-02T07:41:12;100323.06;;;11.89;100.00
42125;BME280;27787;44.594;11.046;2024-03-02T07:43:56;100328.38;;;11.89;100.00
42125;BME280;27787;44.594;11.046;2024-03-02T07:46:44;100330.09;;;11.91;100.00
42125;BME280;27787;44.594;11.046;2024-03-02T07:49:28;100323.94;;;11.92;100.00
42125;BME280;27787;44.594;11.046;2024-03-02T07:52:13;100331.88;;;11.91;100.00
42125;BME280;27787;44.594;11.046;2024-03-02T07:54:57;100336.28;;;11.90;100.00
42125;BME280;27787;44.594;11.046;2024-03-02T07:57:41;100336.28;;;11.92;100.00
42125;BME280;27787;44.594;11.046;2024-03-02T08:00:25;100343.31;;;11.94;100.00
42125;BME280;27787;44.594;11.046;2024-03-02T08:03:10;100336.25;;;11.96;100.00
42125;BME280;27787;44.594;11.046;2024-03-02T08:05:55;100339.72;;;12.04;100.00
42125;BME280;27787;44.594;11.046;2024-03-02T08:08:39;100350.28;;;12.10;100.00
42125;BME280;27787;44.594;11.046;2024-03-02T08:11:23;100352.94;;;12.12;100.00
42125;BME280;27787;44.594;11.046;2024-03-02T08:14:07;100350.28;;;12.14;100.00
42125;BME280;27787;44.594;11.046;2024-03-02T08:16:51;100355.56;;;12.15;100.00
42125;BME280;27787;44.594;11.046;2024-03-02T08:19:36;100360.84;;;12.17;100.00
42125;BME280;27787;44.594;11.046;2024-03-02T08:22:21;100356.38;;;12.22;100.00
42125;BME280;27787;44.594;11.046;2024-03-02T08:25:06;100362.56;;;12.25;100.00
42125;BME280;27787;44.594;11.046;2024-03-02T08:27:53;100360.75;;;12.32;100.00
42125;BME280;27787;44.594;11.046;2024-03-02T08:30:37;100364.22;;;12.40;100.00
42125;BME280;27787;44.594;11.046;2024-03-02T08:33:22;100376.53;;;12.44;100.00
42125;BME280;27787;44.594;11.046;2024-03-02T08:36:06;100370.31;;;12.50;100.00
42125;BME280;27787;44.594;11.046;2024-03-02T08:38:51;100370.31;;;12.48;100.00
42125;BME280;27787;44.594;11.046;2024-03-02T08:41:35;100368.56;;;12.50;100.00
42125;BME280;27787;44.594;11.046;2024-03-02T08:44:19;100378.25;;;12.50;100.00
42125;BME280;27787;44.594;11.046;2024-03-02T08:47:03;100373.84;;;12.52;100.00
42125;BME280;27787;44.594;11.046;2024-03-02T08:49:48;100374.72;;;12.54;100.00
42125;BME280;27787;44.594;11.046;2024-03-02T08:52:32;100388.81;;;12.57;100.00
42125;BME280;27787;44.594;11.046;2024-03-02T08:55:16;100384.38;;;12.61;100.00
42125;BME280;27787;44.594;11.046;2024-03-02T08:58:00;100386.13;;;12.65;100.00
42125;BME280;27787;44.594;11.046;2024-03-02T09:00:47;100386.97;;;12.68;100.00
42125;BME280;27787;44.594;11.046;2024-03-02T09:03:31;100387.81;;;12.72;100.00
42125;BME280;27787;44.594;11.046;2024-03-02T09:06:17;100386.03;;;12.73;100.00
42125;BME280;27787;44.594;11.046;2024-03-02T09:09:02;100387.81;;;12.77;100.00
42125;BME280;27787;44.594;11.046;2024-03-02T09:11:46;100396.59;;;12.80;100.00
42125;BME280;27787;44.594;11.046;2024-03-02T09:14:31;100388.66;;;12.80;100.00
42125;BME280;27787;44.594;11.046;2024-03-02T09:17:15;100396.59;;;12.82;100.00
42125;BME280;27787;44.594;11.046;2024-03-02T09:19:59;100391.28;;;12.82;100.00
42125;BME280;27787;44.594;11.046;2024-03-02T09:22:43;100398.38;;;12.78;100.00
42125;BME280;27787;44.594;11.046;2024-03-02T09:25:28;100405.47;;;12.73;100.00
42125;BME280;27787;44.594;11.046;2024-03-02T09:28:12;100397.53;;;12.72;100.00
42125;BME280;27787;44.594;11.046;2024-03-02T09:30:56;100394.84;;;12.75;100.00
42125;BME280;27787;44.594;11.046;2024-03-02T09:33:41;100399.25;;;12.76;100.00
42125;BME280;27787;44.594;11.046;2024-03-02T09:36:25;100399.25;;;12.79;100.00
42125;BME280;27787;44.594;11.046;2024-03-02T09:39:09;100408.00;;;12.87;100.00
42125;BME280;27787;44.594;11.046;2024-03-02T09:41:54;100405.34;;;12.87;100.00
42125;BME280;27787;44.594;11.046;2024-03-02T09:44:38;100409.81;;;12.83;100.00
42125;BME280;27787;44.594;11.046;2024-03-02T09:47:22;100411.63;;;12.74;100.00
42125;BME280;27787;44.594;11.046;2024-03-02T09:50:07;100408.16;;;12.68;100.00
42125;BME280;27787;44.594;11.046;2024-03-02T09:52:52;100411.69;;;12.69;100.00
42125;BME280;27787;44.594;11.046;2024-03-02T09:55:36;100404.56;;;12.74;100.00
42125;BME280;27787;44.594;11.046;2024-03-02T09:58:21;100405.38;;;12.84;100.00
42125;BME280;27787;44.594;11.046;2024-03-02T10:01:06;100404.38;;;12.98;100.00
42125;BME280;27787;44.594;11.046;2024-03-02T10:03:50;100399.91;;;13.08;100.00
42125;BME280;27787;44.594;11.046;2024-03-02T10:06:35;100405.13;;;13.20;100.00
42125;BME280;27787;44.594;11.046;2024-03-02T10:09:27;100403.25;;;13.32;100.00
42125;BME280;27787;44.594;11.046;2024-03-02T10:12:14;100404.94;;;13.39;100.00
42125;BME280;27787;44.594;11.046;2024-03-02T10:15:03;100409.34;;;13.43;100.00
42125;BME280;27787;44.594;11.046;2024-03-02T10:17:51;100409.25;;;13.49;100.00
42125;BME280;27787;44.594;11.046;2024-03-02T10:20:35;100413.66;;;13.51;100.00
42125;BME280;27787;44.594;11.046;2024-03-02T10:23:19;100410.09;;;13.52;100.00
42125;BME280;27787;44.594;11.046;2024-03-02T10:26:16;100411.84;;;13.53;100.00
42125;BME280;27787;44.594;11.046;2024-03-02T10:29:01;100416.22;;;13.59;100.00
42125;BME280;27787;44.594;11.046;2024-03-02T10:31:46;100424.13;;;13.64;100.00
42125;BME280;27787;44.594;11.046;2024-03-02T10:34:30;100422.31;;;13.69;100.00
42125;BME280;27787;44.594;11.046;2024-03-02T10:37:15;100433.75;;;13.74;100.00
42125;BME280;27787;44.594;11.046;2024-03-02T10:40:07;100426.59;;;13.79;100.00
42125;BME280;27787;44.594;11.046;2024-03-02T10:42:54;100419.53;;;13.81;100.00
42125;BME280;27787;44.594;11.046;2024-03-02T10:45:38;100421.28;;;13.83;100.00
42125;BME280;27787;44.594;11.046;2024-03-02T10:48:25;100420.38;;;13.84;100.00
42125;BME280;27787;44.594;11.046;2024-03-02T10:51:11;100414.22;;;13.82;100.00
42125;BME280;27787;44.594;11.046;2024-03-02T10:53:55;100421.25;;;13.85;100.00
42125;BME280;27787;44.594;11.046;2024-03-02T10:56:41;100407.94;;;13.88;100.00
42125;BME280;27787;44.594;11.046;2024-03-02T11:02:11;100412.25;;;13.98;100.00
42125;BME280;27787;44.594;11.046;2024-03-02T11:04:56;100413.06;;;14.02;100.00
42125;BME280;27787;44.594;11.046;2024-03-02T11:07:43;100409.50;;;14.04;100.00
42125;BME280;27787;44.594;11.046;2024-03-02T11:10:34;100416.50;;;14.11;100.00
42125;BME280;27787;44.594;11.046;2024-03-02T11:13:31;100405.75;;;14.22;100.00
42125;BME280;27787;44.594;11.046;2024-03-02T11:16:32;100406.50;;;14.33;100.00
42125;BME280;27787;44.594;11.046;2024-03-02T11:19:19;100404.75;;;14.32;100.00
42125;BME280;27787;44.594;11.046;2024-03-02T11:22:03;100403.06;;;14.25;100.00
42125;BME280;27787;44.594;11.046;2024-03-02T11:24:50;100406.66;;;14.21;100.00
42125;BME280;27787;44.594;11.046;2024-03-02T11:33:25;100392.69;;;14.04;100.00
42125;BME280;27787;44.594;11.046;2024-03-02T11:36:11;100393.56;;;14.04;100.00
42125;BME280;27787;44.594;11.046;2024-03-02T11:38:56;100397.09;;;14.08;100.00
42125;BME280;27787;44.594;11.046;2024-03-02T11:41:39;100394.41;;;14.11;100.00
42125;BME280;27787;44.594;11.046;2024-03-02T11:44:32;100389.09;;;14.11;100.00
42125;BME280;27787;44.594;11.046;2024-03-02T11:47:17;100384.69;;;14.10;100.00
42125;BME280;27787;44.594;11.046;2024-03-02T11:50:01;100386.34;;;14.17;100.00
42125;BME280;27787;44.594;11.046;2024-03-02T11:52:46;100373.03;;;14.22;100.00
42125;BME280;27787;44.594;11.046;2024-03-02T11:55:30;100374.66;;;14.29;100.00
42125;BME280;27787;44.594;11.046;2024-03-02T11:58:16;100376.38;;;14.34;100.00
42125;BME280;27787;44.594;11.046;2024-03-02T12:01:10;100371.84;;;14.45;100.00
42125;BME280;27787;44.594;11.046;2024-03-02T12:03:58;100371.63;;;14.58;100.00
42125;BME280;27787;44.594;11.046;2024-03-02T12:06:42;100370.63;;;14.65;100.00
42125;BME280;27787;44.594;11.046;2024-03-02T12:09:27;100370.56;;;14.68;100.00
42125;BME280;27787;44.594;11.046;2024-03-02T12:12:12;100365.25;;;14.68;100.00
42125;BME280;27787;44.594;11.046;2024-03-02T12:15:01;100368.78;;;14.71;100.00
42125;BME280;27787;44.594;11.046;2024-03-02T12:17:47;100374.19;;;14.64;100.00
42125;BME280;27787;44.594;11.046;2024-03-02T12:20:33;100367.13;;;14.63;100.00
42125;BME280;27787;44.594;11.046;2024-03-02T12:23:18;100366.28;;;14.61;100.00
42125;BME280;27787;44.594;11.046;2024-03-02T12:26:03;100366.28;;;14.61;100.00
42125;BME280;27787;44.594;11.046;2024-03-02T12:28:47;100361.03;;;14.55;100.00
42125;BME280;27787;44.594;11.046;2024-03-02T12:31:32;100370.88;;;14.50;100.00
42125;BME280;27787;44.594;11.046;2024-03-02T12:34:17;100366.50;;;14.42;100.00
42125;BME280;27787;44.594;11.046;2024-03-02T12:37:01;100363.00;;;14.40;100.00
42125;BME280;27787;44.594;11.046;2024-03-02T12:39:45;100360.38;;;14.39;100.00
42125;BME280;27787;44.594;11.046;2024-03-02T12:42:30;100350.66;;;14.38;100.00
42125;BME280;27787;44.594;11.046;2024-03-02T12:45:15;100354.22;;;14.35;100.00
42125;BME280;27787;44.594;11.046;2024-03-02T12:48:00;100345.41;;;14.32;100.00
42125;BME280;27787;44.594;11.046;2024-03-02T12:50:45;100346.41;;;14.26;100.00
42125;BME280;27787;44.594;11.046;2024-03-02T12:53:29;100345.59;;;14.21;100.00
42125;BME280;27787;44.594;11.046;2024-03-02T12:56:13;100342.13;;;14.14;100.00
42125;BME280;27787;44.594;11.046;2024-03-02T12:58:58;100337.81;;;14.09;100.00
42125;BME280;27787;44.594;11.046;2024-03-02T13:01:53;100335.16;;;14.09;100.00
42125;BME280;27787;44.594;11.046;2024-03-02T13:04:38;100337.72;;;14.13;100.00
42125;BME280;27787;44.594;11.046;2024-03-02T13:07:24;100326.13;;;14.22;100.00
42125;BME280;27787;44.594;11.046;2024-03-02T13:10:08;100325.03;;;14.35;100.00
42125;BME280;27787;44.594;11.046;2024-03-02T13:12:52;100330.22;;;14.41;100.00
42125;BME280;27787;44.594;11.046;2024-03-02T13:15:37;100331.97;;;14.42;100.00
42125;BME280;27787;44.594;11.046;2024-03-02T13:18:22;100343.38;;;14.52;100.00
42125;BME280;27787;44.594;11.046;2024-03-02T13:21:06;100338.00;;;14.55;100.00
42125;BME280;27787;44.594;11.046;2024-03-02T13:23:50;100334.59;;;14.49;100.00
42125;BME280;27787;44.594;11.046;2024-03-02T13:26:35;100347.00;;;14.48;100.00
42125;BME280;27787;44.594;11.046;2024-03-02T13:29:19;100346.16;;;14.44;100.00
42125;BME280;27787;44.594;11.046;2024-03-02T13:32:04;100342.59;;;14.42;100.00
42125;BME280;27787;44.594;11.046;2024-03-02T13:34:49;100342.66;;;14.39;100.00
42125;BME280;27787;44.594;11.046;2024-03-02T13:37:33;100345.28;;;14.45;100.00
42125;BME280;27787;44.594;11.046;2024-03-02T13:40:18;100335.47;;;14.49;100.00
42125;BME280;27787;44.594;11.046;2024-03-02T13:43:04;100334.53;;;14.52;100.00
42125;BME280;27787;44.594;11.046;2024-03-02T13:45:48;100333.59;;;14.54;100.00
42125;BME280;27787;44.594;11.046;2024-03-02T13:48:32;100337.06;;;14.61;100.00
42125;BME280;27787;44.594;11.046;2024-03-02T13:51:17;100336.94;;;14.67;100.00
42125;BME280;27787;44.594;11.046;2024-03-02T13:54:01;100342.16;;;14.74;100.00
42125;BME280;27787;44.594;11.046;2024-03-02T13:56:46;100334.84;;;14.87;100.00
42125;BME280;27787;44.594;11.046;2024-03-02T13:59:30;100333.75;;;14.99;100.00
42125;BME280;27787;44.594;11.046;2024-03-02T14:02:14;100334.38;;;15.13;100.00
42125;BME280;27787;44.594;11.046;2024-03-02T14:04:59;100318.25;;;15.24;100.00
42125;BME280;27787;44.594;11.046;2024-03-02T14:07:43;100328.88;;;15.22;100.00
42125;BME280;27787;44.594;11.046;2024-03-02T14:10:28;100337.88;;;15.17;100.00
42125;BME280;27787;44.594;11.046;2024-03-02T14:13:13;100338.88;;;15.10;100.00
42125;BME280;27787;44.594;11.046;2024-03-02T14:15:57;100333.63;;;15.05;100.00